Time;durP1;ratioP1;P1;durP2;ratioP2;P2;SDS_P1;SDS_P2;PMS_P1;PMS_P2;Temp;Humidity;BMP_temperature;BMP_pressure;BME280_temperature;BME280_humidity;BME280_pressure;Samples;Min_cycle;Max_cycle;Signal;HPM_P1;HPM_P2
2022/06/10 00:01:11;;;;;;;5.77;4.60;;;19.30;54.40;;;;;;4889740;29;20450;-93
2022/06/10 00:03:43;;;;;;;6.90;4.70;;;19.20;54.20;;;;;;4881313;29;21040;-95
2022/06/10 00:06:16;;;;;;;5.77;4.10;;;19.20;54.20;;;;;;4883310;29;20807;-94
2022/06/10 00:08:49;;;;;;;4.47;4.03;;;19.20;54.30;;;;;;4893965;29;20527;-93
2022/06/10 00:11:20;;;;;;;5.60;4.80;;;19.10;54.30;;;;;;4887754;29;20459;-94
2022/06/10 00:13:50;;;;;;;8.03;5.17;;;19.10;54.90;;;;;;4877218;29;20467;-93
2022/06/10 00:16:22;;;;;;;6.97;4.33;;;19.00;54.70;;;;;;4907828;29;20513;-93
2022/06/10 00:18:52;;;;;;;6.80;4.53;;;18.90;54.50;;;;;;4860907;29;20445;-93
2022/06/10 00:21:25;;;;;;;6.30;4.13;;;18.70;55.00;;;;;;4908731;29;20456;-94
2022/06/10 00:23:56;;;;;;;7.77;4.27;;;18.70;55.40;;;;;;4901898;29;20544;-94
2022/06/10 00:26:27;;;;;;;5.03;4.53;;;18.70;54.90;;;;;;4874581;29;20451;-93
2022/06/10 00:28:57;;;;;;;5.03;4.20;;;18.80;54.10;;;;;;4868899;29;20528;-93
2022/06/10 00:31:29;;;;;;;7.27;5.37;;;18.80;54.10;;;;;;4913491;29;20448;-93
2022/06/10 00:34:01;;;;;;;7.90;4.90;;;18.80;54.50;;;;;;4878956;29;20463;-91
2022/06/10 00:36:33;;;;;;;6.83;5.17;;;18.80;54.60;;;;;;4880642;29;20449;-95
2022/06/10 00:39:10;;;;;;;5.20;4.70;;;18.80;54.60;;;;;;4874741;29;20808;-93
2022/06/10 00:41:43;;;;;;;8.30;4.63;;;18.80;54.40;;;;;;4884986;29;20447;-94
2022/06/10 00:44:39;;;;;;;5.40;4.90;;;18.80;54.50;;;;;;4884960;29;20575;-94
2022/06/10 00:47:17;;;;;;;11.83;5.53;;;18.80;54.40;;;;;;4891250;29;20489;-93
2022/06/10 00:49:51;;;;;;;5.07;4.57;;;18.80;54.50;;;;;;4887909;29;20459;-94
2022/06/10 00:52:29;;;;;;;5.20;4.27;;;18.60;54.80;;;;;;4888395;29;21035;-94
2022/06/10 00:55:05;;;;;;;4.30;3.80;;;18.50;55.70;;;;;;4887918;29;20503;-94
2022/06/10 00:57:42;;;;;;;5.73;4.50;;;18.50;54.50;;;;;;4891611;29;20478;-93
2022/06/10 01:00:18;;;;;;;5.50;4.70;;;18.40;54.10;;;;;;4892125;29;20547;-94
2022/06/10 01:02:48;;;;;;;7.40;4.80;;;18.40;54.50;;;;;;4899397;29;20456;-94
2022/06/10 01:05:24;;;;;;;5.83;4.50;;;18.50;54.60;;;;;;4870357;29;20480;-94
2022/06/10 01:08:04;;;;;;;5.23;4.73;;;18.50;54.50;;;;;;4882632;29;20457;-94
2022/06/10 01:10:52;;;;;;;6.80;5.00;;;18.50;54.50;;;;;;4885054;29;20452;-93
2022/06/10 01:13:32;;;;;;;6.53;5.23;;;18.40;54.40;;;;;;4887911;29;21168;-94
2022/06/10 01:16:07;;;;;;;6.80;4.70;;;18.40;54.50;;;;;;4895364;29;20447;-93
2022/06/10 01:18:49;;;;;;;5.70;4.80;;;18.40;54.30;;;;;;4892057;29;21004;-94
2022/06/10 01:21:44;;;;;;;7.43;6.03;;;18.40;54.30;;;;;;4916987;29;20526;-93
2022/06/10 01:24:55;;;;;;;6.83;5.70;;;18.40;54.30;;;;;;4893838;29;20877;-94
2022/06/10 01:27:50;;;;;;;9.20;6.13;;;18.30;54.50;;;;;;4882108;29;20965;-93
2022/06/10 01:30:41;;;;;;;7.07;6.03;;;18.30;54.90;;;;;;4886074;29;20463;-94
2022/06/10 01:33:22;;;;;;;12.30;6.97;;;18.30;55.30;;;;;;4864394;29;20476;-93
2022/06/10 01:36:01;;;;;;;11.97;7.23;;;18.30;55.60;;;;;;4859957;29;20484;-93
2022/06/10 01:38:42;;;;;;;12.30;8.13;;;18.30;55.90;;;;;;4896952;29;20448;-93
2022/06/10 01:41:23;;;;;;;12.87;6.87;;;18.40;56.30;;;;;;4876898;29;20591;-93
2022/06/10 01:44:11;;;;;;;9.90;6.97;;;18.30;56.70;;;;;;4869714;29;20475;-93
2022/06/10 01:46:50;;;;;;;15.47;7.60;;;18.40;56.60;;;;;;4877597;29;20449;-93
2022/06/10 01:49:25;;;;;;;12.90;8.20;;;17.90;57.30;;;;;;4876697;29;21737;-92
2022/06/10 01:52:02;;;;;;;12.27;8.23;;;17.90;57.80;;;;;;4867122;29;20516;-95
2022/06/10 01:54:43;;;;;;;25.33;8.30;;;18.00;57.40;;;;;;4883268;29;21053;-93
2022/06/10 01:57:23;;;;;;;68.60;10.03;;;17.90;58.30;;;;;;4879806;29;20448;-95
2022/06/10 01:59:56;;;;;;;75.10;10.20;;;17.70;59.20;;;;;;4878190;29;20466;-94
2022/06/10 02:02:31;;;;;;;22.43;9.90;;;17.60;59.70;;;;;;4899900;29;20444;-93
2022/06/10 02:05:02;;;;;;;21.33;9.50;;;17.70;59.70;;;;;;4890335;29;20474;-94
2022/06/10 02:07:36;;;;;;;41.30;9.77;;;17.90;59.30;;;;;;4874172;29;20456;-93
2022/06/10 02:10:15;;;;;;;70.50;11.50;;;17.50;59.40;;;;;;4869101;29;20448;-94
2022/06/10 02:12:50;;;;;;;21.10;10.13;;;17.10;61.00;;;;;;4906813;29;20477;-94
2022/06/10 02:15:25;;;;;;;15.70;8.80;;;17.00;62.10;;;;;;4881093;29;20451;-93
2022/06/10 02:18:00;;;;;;;20.57;10.97;;;17.30;61.10;;;;;;4883006;29;20464;-92
2022/06/10 02:20:33;;;;;;;15.00;10.87;;;17.60;60.50;;;;;;4877075;29;20472;-94
2022/06/10 02:23:08;;;;;;;15.33;11.50;;;17.80;59.80;;;;;;4882772;29;20481;-93
2022/06/10 02:25:44;;;;;;;32.13;11.23;;;17.90;59.50;;;;;;4866446;29;20890;-94
2022/06/10 02:28:22;;;;;;;16.43;10.83;;;18.00;59.30;;;;;;4897394;29;20452;-93
2022/06/10 02:30:59;;;;;;;15.27;9.30;;;18.10;59.10;;;;;;4876554;29;20449;-93
2022/06/10 02:33:32;;;;;;;16.40;9.43;;;18.20;59.00;;;;;;4880599;29;20462;-93
2022/06/10 02:36:10;;;;;;;16.63;10.37;;;18.20;58.60;;;;;;4897854;29;20459;-92
2022/06/10 02:38:50;;;;;;;57.43;10.87;;;18.20;58.50;;;;;;4870016;29;20455;-93
2022/06/10 02:41:30;;;;;;;68.87;12.67;;;17.90;59.00;;;;;;4868844;29;20470;-93
2022/06/10 02:44:20;;;;;;;11.93;8.97;;;17.70;59.70;;;;;;4875931;29;20471;-93
2022/06/10 02:47:01;;;;;;;14.20;8.47;;;17.40;60.50;;;;;;4880767;29;21252;-94
2022/06/10 02:49:31;;;;;;;21.10;9.60;;;17.60;59.80;;;;;;4898853;29;20530;-93
2022/06/10 02:52:02;;;;;;;62.83;9.70;;;17.80;59.20;;;;;;4880132;29;20459;-93
2022/06/10 02:54:35;;;;;;;22.33;8.53;;;17.90;58.70;;;;;;4865624;29;20559;-93
2022/06/10 02:57:15;;;;;;;13.93;8.90;;;17.90;58.80;;;;;;4895589;29;20544;-95
2022/06/10 03:02:51;;;;;;;19.00;9.67;;;17.90;58.80;;;;;;4889897;29;20448;-93
2022/06/10 03:05:34;;;;;;;34.63;15.00;;;17.60;59.60;;;;;;4894622;29;20455;-93
2022/06/10 03:08:14;;;;;;;19.80;10.93;;;17.60;59.80;;;;;;4892320;29;20552;-93
2022/06/10 03:10:57;;;;;;;45.43;10.53;;;17.60;59.80;;;;;;4874849;29;20465;-94
2022/06/10 03:13:39;;;;;;;14.23;8.27;;;17.80;59.70;;;;;;4890539;29;20478;-93
2022/06/10 03:16:39;;;;;;;19.17;9.60;;;17.80;59.30;;;;;;4892609;29;20480;-93
2022/06/10 03:19:30;;;;;;;83.77;14.00;;;17.80;59.30;;;;;;4896315;29;20514;-93
2022/06/10 03:22:12;;;;;;;31.73;11.47;;;17.40;59.70;;;;;;4861913;29;20463;-93
2022/06/10 03:24:53;;;;;;;21.57;10.73;;;17.60;60.30;;;;;;4867836;29;20855;-93
2022/06/10 03:27:27;;;;;;;17.43;10.37;;;17.70;59.90;;;;;;4893328;29;20889;-93
2022/06/10 03:30:00;;;;;;;21.33;9.83;;;17.70;59.80;;;;;;4863565;29;20454;-93
2022/06/10 03:32:33;;;;;;;15.13;9.40;;;17.80;59.60;;;;;;4879624;29;20456;-93
2022/06/10 03:35:10;;;;;;;18.03;9.43;;;17.90;59.40;;;;;;4871089;29;20453;-93
2022/06/10 03:37:45;;;;;;;38.17;10.63;;;17.90;59.20;;;;;;4893962;29;20464;-93
2022/06/10 03:40:19;;;;;;;11.60;8.83;;;17.90;58.90;;;;;;4899167;29;20481;-94
2022/06/10 03:42:51;;;;;;;19.37;8.00;;;17.80;59.10;;;;;;4881009;29;20570;-93
2022/06/10 03:45:24;;;;;;;20.60;9.20;;;17.70;59.20;;;;;;4878979;29;20449;-94
2022/06/10 03:47:54;;;;;;;12.00;8.50;;;17.70;59.20;;;;;;4864519;29;20842;-93
2022/06/10 03:50:30;;;;;;;21.73;10.23;;;17.80;59.30;;;;;;4893896;29;21176;-92
2022/06/10 03:52:59;;;;;;;46.30;10.10;;;17.50;59.30;;;;;;4866810;29;20464;-94
2022/06/10 03:55:31;;;;;;;15.17;9.53;;;17.30;59.90;;;;;;4848464;29;20460;-95
2022/06/10 03:58:01;;;;;;;19.70;8.57;;;17.40;60.10;;;;;;4878804;29;20486;-92
2022/06/10 04:00:31;;;;;;;13.33;8.30;;;17.50;59.70;;;;;;4883303;29;20464;-94
2022/06/10 04:03:01;;;;;;;19.30;8.20;;;17.50;59.70;;;;;;4866875;29;20472;-93
2022/06/10 04:05:31;;;;;;;17.80;9.60;;;17.50;59.50;;;;;;4856773;29;20448;-92
2022/06/10 04:08:06;;;;;;;14.87;8.70;;;17.50;59.40;;;;;;4862701;29;20482;-93
2022/06/10 04:10:38;;;;;;;21.07;8.50;;;17.60;59.30;;;;;;4880084;29;20440;-93
2022/06/10 04:13:17;;;;;;;34.97;8.77;;;17.80;59.40;;;;;;4879240;29;20467;-94
2022/06/10 04:15:49;;;;;;;18.23;8.80;;;17.90;58.50;;;;;;4908887;29;20936;-92
2022/06/10 04:18:19;;;;;;;11.27;7.40;;;17.80;58.40;;;;;;4867387;29;20468;-93
2022/06/10 04:20:48;;;;;;;11.30;7.27;;;17.60;58.80;;;;;;4865687;29;21104;-94
2022/06/10 04:23:21;;;;;;;12.07;7.70;;;17.60;59.10;;;;;;4881002;29;20549;-93
2022/06/10 04:25:50;;;;;;;15.67;8.50;;;17.70;58.90;;;;;;4899824;29;20456;-95
2022/06/10 04:28:19;;;;;;;8.73;6.90;;;17.80;58.80;;;;;;4881245;29;20448;-94
2022/06/10 04:30:51;;;;;;;10.50;7.80;;;17.80;58.60;;;;;;4888161;29;20448;-93
2022/06/10 04:33:22;;;;;;;12.30;7.37;;;17.90;58.70;;;;;;4876292;29;20470;-93
2022/06/10 04:35:52;;;;;;;65.90;10.17;;;17.90;58.60;;;;;;4902513;29;20487;-93
2022/06/10 04:38:24;;;;;;;11.00;8.17;;;17.80;58.30;;;;;;4864554;29;21011;-93
2022/06/10 04:40:54;;;;;;;28.17;8.37;;;17.80;58.70;;;;;;4882990;29;20539;-92
2022/06/10 04:43:23;;;;;;;15.13;7.87;;;17.80;58.80;;;;;;4876608;29;20472;-95
2022/06/10 04:45:56;;;;;;;12.50;7.90;;;17.90;58.60;;;;;;4878057;29;21157;-93
2022/06/10 04:48:26;;;;;;;11.47;8.17;;;18.00;58.50;;;;;;4895149;29;20541;-93
2022/06/10 04:50:58;;;;;;;16.73;8.23;;;18.00;58.50;;;;;;4856600;29;20457;-94
2022/06/10 04:53:28;;;;;;;18.70;9.40;;;18.00;58.40;;;;;;4857406;29;20472;-94
2022/06/10 04:55:59;;;;;;;13.20;8.90;;;17.90;58.40;;;;;;4864516;29;21010;-95
2022/06/10 04:58:26;;;;;;;12.77;7.73;;;17.90;58.70;;;;;;4895564;29;20456;-94
2022/06/10 05:00:55;;;;;;;13.70;8.07;;;17.90;58.60;;;;;;4882351;29;20508;-94
2022/06/10 05:03:26;;;;;;;13.80;8.23;;;17.90;58.70;;;;;;4874514;29;20523;-93
2022/06/10 05:05:57;;;;;;;15.70;7.37;;;17.90;58.70;;;;;;4870506;29;20455;-92
2022/06/10 05:08:28;;;;;;;14.97;8.20;;;18.00;58.70;;;;;;4864830;29;20486;-93
2022/06/10 05:10:59;;;;;;;13.20;8.20;;;17.90;58.60;;;;;;4861986;29;20467;-93
2022/06/10 05:13:28;;;;;;;12.47;7.30;;;18.00;58.60;;;;;;4866304;29;20996;-94
2022/06/10 05:15:58;;;;;;;9.20;7.13;;;18.00;58.70;;;;;;4859727;29;20509;-93
2022/06/10 05:18:27;;;;;;;62.10;10.20;;;18.10;58.50;;;;;;4866749;29;20487;-91
2022/06/10 05:24:26;;;;;;;10.90;8.27;;;18.00;58.40;;;;;;4885305;29;20498;-91
2022/06/10 05:26:55;;;;;;;11.00;8.03;;;18.00;58.40;;;;;;4865077;29;20463;-91
2022/06/10 05:29:25;;;;;;;12.20;8.07;;;17.90;58.80;;;;;;4874297;29;20454;-93
2022/06/10 05:31:55;;;;;;;17.33;9.30;;;17.70;59.10;;;;;;4869016;29;20493;-94
2022/06/10 05:38:01;;;;;;;16.60;9.53;;;18.00;59.40;;;;;;4876580;29;20447;-92
2022/06/10 05:44:42;;;;;;;12.50;8.67;;;17.80;59.70;;;;;;4901554;29;20480;-93
2022/06/10 05:47:12;;;;;;;14.07;7.97;;;17.70;59.60;;;;;;4886569;29;20515;-94
2022/06/10 05:49:44;;;;;;;14.47;8.10;;;17.70;59.80;;;;;;4874958;29;20460;-94
2022/06/10 05:52:13;;;;;;;14.90;9.10;;;17.90;59.50;;;;;;4889834;29;20452;-95
2022/06/10 05:58:22;;;;;;;11.83;7.67;;;18.10;58.60;;;;;;4899720;29;20758;-93
2022/06/10 06:00:51;;;;;;;30.27;9.23;;;18.10;58.50;;;;;;4906938;29;20455;-94
2022/06/10 06:03:19;;;;;;;46.17;9.60;;;18.10;58.40;;;;;;4854302;29;20475;-93
2022/06/10 06:05:47;;;;;;;13.63;8.30;;;18.10;58.60;;;;;;4867755;29;20977;-93
2022/06/10 06:08:16;;;;;;;9.63;7.37;;;18.10;59.20;;;;;;4900059;29;20456;-90
2022/06/10 06:10:44;;;;;;;15.07;7.63;;;18.10;61.20;;;;;;4856101;29;20455;-89
2022/06/10 06:13:12;;;;;;;8.47;6.00;;;18.10;60.10;;;;;;4880412;29;20480;-88
2022/06/10 06:15:42;;;;;;;9.50;7.33;;;18.30;60.40;;;;;;4881767;29;20447;-89
2022/06/10 06:19:00;;;;;;;16.00;7.10;;;18.50;59.20;;;;;;4883652;29;20444;-89
2022/06/10 06:22:59;;;;;;;7.40;5.83;;;18.60;58.80;;;;;;4881109;29;20504;-87
2022/06/10 06:29:25;;;;;;;6.20;5.47;;;18.80;58.00;;;;;;4873786;29;20522;-88
2022/06/10 06:31:55;;;;;;;9.30;6.43;;;18.80;58.00;;;;;;4855475;29;21296;-89
2022/06/10 06:34:26;;;;;;;9.00;6.33;;;19.00;57.90;;;;;;4863110;29;20505;-89
2022/06/10 06:36:56;;;;;;;10.10;6.83;;;19.10;57.80;;;;;;4909815;29;21000;-91
2022/06/10 06:39:26;;;;;;;7.90;7.10;;;19.30;57.80;;;;;;4884163;29;20802;-90
2022/06/10 06:41:55;;;;;;;7.07;6.37;;;19.60;56.90;;;;;;4853740;29;20483;-89
2022/06/10 06:44:33;;;;;;;9.43;5.93;;;19.50;56.80;;;;;;4877156;29;20471;-89
2022/06/10 06:47:03;;;;;;;7.30;6.37;;;19.50;57.20;;;;;;4868874;29;20474;-90
2022/06/10 06:49:31;;;;;;;10.23;5.80;;;19.50;57.00;;;;;;4866906;29;20482;-90
2022/06/10 06:51:59;;;;;;;7.97;6.40;;;19.60;57.10;;;;;;4886986;29;20444;-88
2022/06/10 06:54:28;;;;;;;8.03;7.23;;;19.90;57.30;;;;;;4892374;29;20563;-88
2022/06/10 06:56:57;;;;;;;6.70;5.70;;;20.00;56.80;;;;;;4877716;29;20475;-90
2022/06/10 06:59:25;;;;;;;7.53;6.77;;;20.00;56.90;;;;;;4894217;29;20535;-87
2022/06/10 07:01:52;;;;;;;7.70;5.93;;;20.20;56.90;;;;;;4869327;29;20464;-89
2022/06/10 07:04:21;;;;;;;8.93;6.83;;;20.40;56.40;;;;;;4883259;29;20483;-89
2022/06/10 07:06:49;;;;;;;11.57;8.17;;;20.70;56.20;;;;;;4898534;29;21003;-89
2022/06/10 07:09:17;;;;;;;7.80;6.70;;;20.90;55.50;;;;;;4872674;29;20445;-88
2022/06/10 07:11:44;;;;;;;7.50;6.53;;;20.80;55.80;;;;;;4885287;29;20697;-93
2022/06/10 07:14:13;;;;;;;6.70;6.03;;;21.00;55.50;;;;;;4887050;29;20817;-93
2022/06/10 07:16:41;;;;;;;6.47;5.87;;;20.90;55.30;;;;;;4883453;29;20484;-93
2022/06/10 07:19:09;;;;;;;6.90;6.13;;;20.90;55.80;;;;;;4886632;29;20463;-87
2022/06/10 07:21:39;;;;;;;7.10;5.57;;;21.00;56.20;;;;;;4875241;29;20468;-94
2022/06/10 07:24:08;;;;;;;7.80;5.73;;;21.20;56.20;;;;;;4876232;29;21065;-94
2022/06/10 07:26:36;;;;;;;8.87;7.00;;;21.50;55.30;;;;;;4868404;29;20564;-95
2022/06/10 07:29:05;;;;;;;6.00;5.43;;;21.70;54.80;;;;;;4852966;29;20496;-93
2022/06/10 07:31:34;;;;;;;11.03;6.07;;;21.70;54.70;;;;;;4872211;29;20476;-92
2022/06/10 07:34:02;;;;;;;8.57;6.00;;;21.80;54.10;;;;;;4878677;29;20511;-91
2022/06/10 07:36:30;;;;;;;9.80;6.37;;;21.70;55.20;;;;;;4881937;29;20475;-93
2022/06/10 07:39:00;;;;;;;9.27;6.50;;;21.80;54.60;;;;;;4881132;29;21001;-94
2022/06/10 07:44:14;;;;;;;6.50;5.50;;;22.20;54.80;;;;;;4891938;29;20499;-96
2022/06/10 07:46:42;;;;;;;7.50;5.40;;;22.30;54.60;;;;;;4863309;29;20452;-93
2022/06/10 07:49:09;;;;;;;7.17;5.43;;;22.50;53.70;;;;;;4887666;29;21305;-94
2022/06/10 07:51:38;;;;;;;8.27;5.53;;;22.50;53.80;;;;;;4899573;29;20893;-94
2022/06/10 07:54:08;;;;;;;6.40;4.90;;;22.70;53.70;;;;;;4874547;29;21275;-93
2022/06/10 07:56:37;;;;;;;6.33;5.40;;;22.80;52.70;;;;;;4853923;29;20472;-93
2022/06/10 07:59:06;;;;;;;5.57;5.07;;;22.70;53.20;;;;;;4869944;29;20449;-93
2022/06/10 08:01:34;;;;;;;4.90;4.43;;;22.90;53.10;;;;;;4884792;29;21386;-95
2022/06/10 08:04:06;;;;;;;4.43;4.07;;;23.10;52.20;;;;;;4868226;29;20563;-93
2022/06/10 08:06:39;;;;;;;7.50;3.80;;;23.20;51.70;;;;;;4870703;29;20504;-92
2022/06/10 08:09:10;;;;;;;3.63;3.33;;;23.50;50.60;;;;;;4858403;29;20460;-93
2022/06/10 08:11:39;;;;;;;3.43;3.13;;;23.50;49.40;;;;;;4877232;29;20531;-92
2022/06/10 08:14:08;;;;;;;3.60;3.30;;;23.50;49.60;;;;;;4871143;29;20476;-92
2022/06/10 08:16:37;;;;;;;3.43;2.73;;;23.50;48.90;;;;;;4871310;29;20455;-93
2022/06/10 08:19:05;;;;;;;3.90;3.40;;;23.60;48.10;;;;;;4875257;29;20457;-92
2022/06/10 08:24:21;;;;;;;2.80;2.13;;;23.90;45.90;;;;;;4906700;29;21230;-92
2022/06/10 08:26:49;;;;;;;4.63;2.57;;;23.90;45.00;;;;;;4900313;29;20460;-93
2022/06/10 08:29:17;;;;;;;2.63;2.30;;;24.10;45.30;;;;;;4887265;29;20483;-92
2022/06/10 08:31:46;;;;;;;2.00;1.90;;;24.10;44.10;;;;;;4881480;29;20574;-92
2022/06/10 08:34:13;;;;;;;2.70;2.20;;;24.30;43.20;;;;;;4859948;29;20515;-91
2022/06/10 08:36:42;;;;;;;3.30;2.07;;;24.60;43.20;;;;;;4873763;29;20444;-93
2022/06/10 08:39:09;;;;;;;3.70;1.97;;;24.80;43.20;;;;;;4883144;29;21052;-94
2022/06/10 08:41:51;;;;;;;2.53;1.80;;;25.10;41.50;;;;;;4884207;29;20535;-92
2022/06/10 08:44:32;;;;;;;2.43;1.80;;;25.20;41.50;;;;;;4885287;29;20475;-91
2022/06/10 08:47:18;;;;;;;2.47;1.80;;;25.30;41.50;;;;;;4882032;29;20459;-92
2022/06/10 08:49:59;;;;;;;2.00;1.90;;;25.50;40.70;;;;;;4876861;29;20435;-93
2022/06/10 08:52:36;;;;;;;2.80;2.07;;;25.50;40.00;;;;;;4885590;29;20466;-92
2022/06/10 08:55:16;;;;;;;2.03;1.83;;;25.60;40.10;;;;;;4865558;29;20479;-91
2022/06/10 08:57:49;;;;;;;2.10;2.00;;;25.70;39.20;;;;;;4869080;29;20572;-91
2022/06/10 09:00:21;;;;;;;2.67;1.80;;;25.60;37.60;;;;;;4862880;29;20451;-91
2022/06/10 09:02:56;;;;;;;1.90;1.80;;;25.80;39.50;;;;;;4893234;29;20487;-89
2022/06/10 09:05:27;;;;;;;4.30;2.07;;;25.80;38.80;;;;;;4862339;29;21131;-89
2022/06/10 09:08:00;;;;;;;2.20;1.60;;;26.00;38.90;;;;;;4876972;29;20451;-90
2022/06/10 09:10:34;;;;;;;1.83;1.60;;;26.30;38.40;;;;;;4876495;29;20447;-89
2022/06/10 09:13:24;;;;;;;4.50;1.73;;;26.40;36.90;;;;;;4859637;29;20626;-90
2022/06/10 09:15:57;;;;;;;2.27;1.90;;;26.60;36.80;;;;;;4863838;29;20461;-90
2022/06/10 09:18:31;;;;;;;3.30;1.60;;;26.70;37.90;;;;;;4878594;29;20452;-88
2022/06/10 09:21:07;;;;;;;3.00;1.70;;;26.80;35.90;;;;;;4860172;29;20455;-88
2022/06/10 09:23:40;;;;;;;2.50;1.93;;;26.80;37.80;;;;;;4877451;29;20519;-89
2022/06/10 09:26:12;;;;;;;1.60;1.50;;;26.70;35.70;;;;;;4886620;29;20463;-89
2022/06/10 09:28:42;;;;;;;2.47;1.97;;;27.00;37.10;;;;;;4883881;29;20436;-90
2022/06/10 09:31:24;;;;;;;3.60;1.83;;;26.90;36.50;;;;;;4881253;29;20455;-91
2022/06/10 09:33:57;;;;;;;2.90;2.00;;;26.90;36.40;;;;;;4877669;29;20469;-91
2022/06/10 09:36:35;;;;;;;2.47;1.83;;;26.90;34.80;;;;;;4894315;29;21015;-90
2022/06/10 09:40:35;;;;;;;2.13;1.80;;;26.60;35.60;;;;;;4863038;29;20563;-91
2022/06/10 09:42:04;;;;;;;1.93;1.80;;;26.80;36.90;;;;;;4864751;29;20452;-90
2022/06/10 09:44:44;;;;;;;2.17;1.97;;;27.30;35.00;;;;;;4866184;29;20476;-91
2022/06/10 09:47:26;;;;;;;2.80;1.60;;;27.30;35.40;;;;;;4877332;29;20464;-91
2022/06/10 09:50:15;;;;;;;2.13;2.03;;;27.60;36.10;;;;;;4890604;29;20452;-91
2022/06/10 09:52:54;;;;;;;2.67;2.17;;;27.70;35.60;;;;;;4880442;29;20446;-89
2022/06/10 09:55:36;;;;;;;2.10;2.00;;;27.80;35.60;;;;;;4890395;29;20472;-90
2022/06/10 09:58:30;;;;;;;3.63;2.27;;;28.00;36.10;;;;;;4880071;29;20555;-90
2022/06/10 10:01:10;;;;;;;2.30;2.10;;;28.10;36.30;;;;;;4863691;29;20453;-90
2022/06/10 10:04:13;;;;;;;2.23;2.00;;;28.10;35.20;;;;;;4876818;29;20476;-91
2022/06/10 10:06:49;;;;;;;9.83;2.30;;;28.40;35.50;;;;;;4876117;29;20458;-90
2022/06/10 10:09:27;;;;;;;5.13;2.40;;;28.60;35.10;;;;;;4878517;29;20456;-91
2022/06/10 10:12:06;;;;;;;9.23;2.30;;;28.80;32.50;;;;;;4895218;29;20448;-90
2022/06/10 10:14:40;;;;;;;4.87;2.90;;;28.60;34.70;;;;;;4869213;29;20476;-90
2022/06/10 10:17:31;;;;;;;2.17;2.07;;;28.70;35.00;;;;;;4856103;29;20871;-90
2022/06/10 10:20:10;;;;;;;3.80;2.00;;;28.70;35.40;;;;;;4861418;29;21169;-92
2022/06/10 10:22:58;;;;;;;3.50;2.40;;;29.00;35.20;;;;;;4877488;29;20744;-89
2022/06/10 10:25:27;;;;;;;4.50;2.23;;;29.30;34.30;;;;;;4878207;29;20445;-90
2022/06/10 10:27:57;;;;;;;2.90;2.20;;;29.40;34.20;;;;;;4893008;29;20457;-91
2022/06/10 10:30:33;;;;;;;3.33;2.33;;;29.30;33.50;;;;;;4875272;29;20536;-91
2022/06/10 10:33:06;;;;;;;1.77;1.67;;;29.20;33.90;;;;;;4885428;29;20540;-90
2022/06/10 10:35:40;;;;;;;2.30;2.10;;;29.30;35.30;;;;;;4881266;29;21290;-90
2022/06/10 10:38:12;;;;;;;2.37;2.10;;;29.30;33.60;;;;;;4858340;29;21161;-90
2022/06/10 10:40:42;;;;;;;2.00;1.90;;;29.70;33.20;;;;;;4892695;29;20445;-90
2022/06/10 10:43:16;;;;;;;3.37;2.37;;;29.90;32.40;;;;;;4895933;29;20535;-90
2022/06/10 10:45:57;;;;;;;2.13;1.90;;;29.80;31.50;;;;;;4878947;29;20471;-90
2022/06/10 10:48:30;;;;;;;3.07;2.37;;;29.90;31.80;;;;;;4881304;29;20460;-89
2022/06/10 10:51:02;;;;;;;2.70;2.10;;;30.10;32.10;;;;;;4881195;29;20999;-90
2022/06/10 10:53:37;;;;;;;3.53;2.07;;;29.90;32.20;;;;;;4880761;29;20467;-91
2022/06/10 10:56:06;;;;;;;2.83;2.20;;;29.30;32.00;;;;;;4892463;29;20505;-90
2022/06/10 10:58:38;;;;;;;2.60;2.20;;;29.60;34.60;;;;;;4880912;29;20458;-90
2022/06/10 11:01:09;;;;;;;2.03;1.93;;;29.90;34.10;;;;;;4881214;29;20555;-89
2022/06/10 11:03:51;;;;;;;2.10;2.00;;;30.10;30.60;;;;;;4860833;29;20488;-90
2022/06/10 11:06:26;;;;;;;2.40;2.07;;;30.40;31.70;;;;;;4872786;29;21822;-90
2022/06/10 11:09:00;;;;;;;2.40;2.20;;;30.50;31.30;;;;;;4874448;29;20443;-91
2022/06/10 11:11:30;;;;;;;5.70;2.37;;;30.20;31.10;;;;;;4859646;29;20543;-88
2022/06/10 11:14:01;;;;;;;3.00;2.10;;;30.00;31.70;;;;;;4884437;29;20464;-91
2022/06/10 11:16:38;;;;;;;4.47;2.07;;;29.90;30.90;;;;;;4862601;29;20455;-89
2022/06/10 11:19:16;;;;;;;2.40;1.70;;;30.10;32.80;;;;;;4843600;29;20455;-89
2022/06/10 11:21:51;;;;;;;2.00;1.77;;;30.40;30.00;;;;;;4858838;29;21905;-90
2022/06/10 11:24:26;;;;;;;1.60;1.50;;;30.30;28.90;;;;;;4891722;29;21787;-89
2022/06/10 11:26:57;;;;;;;2.07;1.87;;;30.20;28.90;;;;;;4863169;29;21068;-90
2022/06/10 11:29:25;;;;;;;3.00;1.80;;;30.20;29.70;;;;;;4905204;29;20592;-89
2022/06/10 11:31:57;;;;;;;3.93;1.60;;;30.00;30.70;;;;;;4894141;29;20816;-89
2022/06/10 11:34:34;;;;;;;5.40;1.93;;;30.00;31.20;;;;;;4889117;29;20480;-88
2022/06/10 11:37:20;;;;;;;2.40;1.70;;;30.20;29.90;;;;;;4887521;29;20452;-89
2022/06/10 11:39:56;;;;;;;4.53;2.07;;;29.90;29.90;;;;;;4890864;29;20483;-89
2022/06/10 11:42:31;;;;;;;6.23;2.27;;;29.60;30.60;;;;;;4891491;29;20450;-89
2022/06/10 11:45:08;;;;;;;2.50;1.60;;;29.80;30.40;;;;;;4875075;29;20480;-89
2022/06/10 11:47:41;;;;;;;2.03;1.43;;;29.80;30.20;;;;;;4874914;29;20481;-90
2022/06/10 11:50:19;;;;;;;2.03;1.90;;;30.00;30.00;;;;;;4873729;29;20459;-89
2022/06/10 11:52:52;;;;;;;4.87;2.90;;;29.70;29.80;;;;;;4875762;29;20446;-90
2022/06/10 11:55:26;;;;;;;2.90;1.50;;;29.60;29.40;;;;;;4873508;29;20460;-90
2022/06/10 12:00:50;;;;;;;2.37;1.80;;;29.90;29.40;;;;;;4871958;29;20456;-89
2022/06/10 12:03:24;;;;;;;3.60;1.87;;;29.70;29.00;;;;;;4873096;29;20487;-90
2022/06/10 12:05:58;;;;;;;5.23;2.00;;;29.20;30.40;;;;;;4874726;29;20539;-90
2022/06/10 12:08:47;;;;;;;2.27;1.83;;;29.00;30.70;;;;;;4874788;29;20995;-89
2022/06/10 12:11:33;;;;;;;2.63;2.17;;;28.60;30.70;;;;;;4859842;29;20476;-90
2022/06/10 12:14:10;;;;;;;3.43;2.03;;;28.30;32.00;;;;;;4874586;29;20479;-90
2022/06/10 12:16:39;;;;;;;4.37;2.40;;;28.20;31.90;;;;;;4857011;29;20456;-89
2022/06/10 12:19:13;;;;;;;4.30;2.00;;;28.60;32.10;;;;;;4873077;29;20459;-91
2022/06/10 12:21:43;;;;;;;2.03;1.90;;;29.10;30.60;;;;;;4872361;29;20831;-88
2022/06/10 12:24:14;;;;;;;5.90;2.27;;;29.30;31.20;;;;;;4860413;29;20480;-90
2022/06/10 12:26:49;;;;;;;3.03;2.20;;;29.30;31.70;;;;;;4881499;29;20452;-90
2022/06/10 12:29:20;;;;;;;2.77;2.37;;;29.40;30.40;;;;;;4874673;29;20535;-89
2022/06/10 12:31:59;;;;;;;2.43;2.20;;;29.30;30.40;;;;;;4864899;29;20480;-90
2022/06/10 12:34:42;;;;;;;3.23;2.20;;;29.50;30.40;;;;;;4890053;29;21237;-87
2022/06/10 12:37:26;;;;;;;2.20;2.00;;;29.60;30.60;;;;;;4876216;29;20773;-89
2022/06/10 12:39:58;;;;;;;3.90;2.50;;;29.90;30.90;;;;;;4885600;29;20572;-91
2022/06/10 12:42:35;;;;;;;1.60;1.50;;;30.50;30.60;;;;;;4877404;29;20457;-88
2022/06/10 12:45:06;;;;;;;2.60;1.87;;;30.50;29.30;;;;;;4865861;29;20471;-89
2022/06/10 12:47:37;;;;;;;3.60;2.50;;;30.10;29.10;;;;;;4868127;29;20464;-89
2022/06/10 12:50:18;;;;;;;3.30;1.67;;;29.90;30.00;;;;;;4887519;29;20453;-89
2022/06/10 12:53:08;;;;;;;7.60;2.10;;;29.80;29.60;;;;;;4876228;29;20464;-88
2022/06/10 12:55:46;;;;;;;3.00;1.80;;;29.60;30.00;;;;;;4855753;29;21112;-88
2022/06/10 12:58:46;;;;;;;2.07;1.80;;;30.20;30.40;;;;;;4873001;29;20448;-89
2022/06/10 13:01:18;;;;;;;2.87;2.00;;;30.80;29.80;;;;;;4867404;29;20453;-91
2022/06/10 13:03:48;;;;;;;1.90;1.80;;;31.10;29.40;;;;;;4879102;29;20474;-89
2022/06/10 13:06:32;;;;;;;2.33;2.13;;;31.00;28.90;;;;;;4876601;29;20448;-89
2022/06/10 13:09:27;;;;;;;1.97;1.80;;;30.80;29.50;;;;;;4895851;29;20433;-90
2022/06/10 13:11:58;;;;;;;2.70;2.13;;;30.90;29.60;;;;;;4863725;29;20981;-89
2022/06/10 13:14:43;;;;;;;2.43;1.90;;;30.70;28.90;;;;;;4867260;29;20472;-89
2022/06/10 13:17:27;;;;;;;2.70;2.03;;;31.00;29.40;;;;;;4872427;29;20463;-89
2022/06/10 13:20:27;;;;;;;2.00;1.73;;;30.90;30.20;;;;;;4876429;29;20452;-89
2022/06/10 13:23:20;;;;;;;2.83;1.70;;;30.60;29.90;;;;;;4860980;29;20460;-89
2022/06/10 13:26:12;;;;;;;2.13;1.93;;;30.30;31.50;;;;;;4861052;29;20986;-91
2022/06/10 13:28:44;;;;;;;2.27;2.07;;;30.20;31.00;;;;;;4876533;29;20456;-89
2022/06/10 13:31:17;;;;;;;2.00;1.90;;;30.30;29.90;;;;;;4878810;29;21036;-88
2022/06/10 13:33:56;;;;;;;2.43;2.00;;;30.10;29.60;;;;;;4869227;29;20483;-89
2022/06/10 13:36:27;;;;;;;3.10;1.90;;;29.90;30.20;;;;;;4861829;29;20471;-89
2022/06/10 13:38:57;;;;;;;2.90;1.97;;;30.10;30.70;;;;;;4868577;29;20456;-90
2022/06/10 13:41:50;;;;;;;2.33;2.13;;;30.10;30.40;;;;;;4861280;29;20456;-88
2022/06/10 13:44:27;;;;;;;2.47;2.27;;;30.20;30.00;;;;;;4865128;29;20483;-90
2022/06/10 13:46:55;;;;;;;2.23;1.90;;;30.40;29.90;;;;;;4878618;29;20444;-89
2022/06/10 13:52:29;;;;;;;2.13;1.90;;;30.60;30.00;;;;;;4880382;29;21201;-89
2022/06/10 13:54:59;;;;;;;2.07;1.97;;;30.80;29.70;;;;;;4893383;29;20474;-89
2022/06/10 13:57:31;;;;;;;2.00;1.70;;;31.10;29.20;;;;;;4866619;29;20972;-89